createdAt,value
2022-10-12T00:01:17.159Z,2.10
2022-10-12T00:03:45.008Z,2.70
2022-10-12T00:06:25.268Z,2.50
2022-10-12T00:08:55.920Z,2.15
2022-10-12T00:11:28.174Z,2.33
2022-10-12T00:13:57.637Z,2.95
2022-10-12T00:16:27.028Z,2.42
2022-10-12T00:18:56.774Z,2.50
2022-10-12T00:21:29.355Z,2.33
2022-10-12T00:24:02.153Z,2.72
2022-10-12T00:26:30.464Z,2.70
2022-10-12T00:29:01.494Z,2.42
2022-10-12T00:31:31.247Z,2.80
2022-10-12T00:34:04.257Z,2.85
2022-10-12T00:36:35.973Z,2.75
2022-10-12T00:39:09.226Z,2.53
2022-10-12T00:41:42.954Z,2.83
2022-10-12T00:44:35.860Z,2.53
2022-10-12T00:47:16.804Z,2.45
2022-10-12T00:49:55.314Z,2.78
2022-10-12T00:52:37.000Z,2.60
2022-10-12T00:57:34.610Z,2.60
2022-10-12T01:00:08.683Z,2.70
2022-10-12T01:02:49.324Z,2.47
2022-10-12T01:07:46.862Z,2.42
2022-10-12T01:10:15.820Z,2.28
2022-10-12T01:12:47.426Z,2.47
2022-10-12T01:18:17.954Z,2.25
2022-10-12T01:21:30.114Z,2.78
2022-10-12T01:24:23.977Z,2.20
2022-10-12T01:27:03.803Z,2.70
2022-10-12T01:30:07.979Z,2.90
2022-10-12T01:33:25.436Z,2.90
2022-10-12T01:36:10.021Z,2.95
2022-10-12T01:38:41.894Z,3.47
2022-10-12T01:41:19.122Z,3.25
2022-10-12T01:43:47.653Z,3.67
2022-10-12T01:46:15.603Z,2.97
2022-10-12T01:48:54.500Z,3.10
2022-10-12T01:52:15.924Z,2.60
2022-10-12T01:55:08.402Z,2.58
2022-10-12T01:58:33.856Z,2.55
2022-10-12T02:01:27.030Z,2.47
2022-10-12T02:04:03.209Z,3.88
2022-10-12T02:06:45.450Z,4.22
2022-10-12T02:09:26.793Z,4.32
2022-10-12T02:12:02.402Z,3.40
2022-10-12T02:14:38.920Z,5.95
2022-10-12T02:17:12.436Z,10.18
2022-10-12T02:19:49.401Z,7.13
2022-10-12T02:22:18.414Z,15.07
2022-10-12T02:24:51.867Z,13.82
2022-10-12T02:27:21.692Z,11.10
2022-10-12T02:29:49.875Z,11.95
2022-10-12T02:32:25.070Z,8.82
2022-10-12T02:35:05.510Z,8.10
2022-10-12T02:37:46.759Z,7.13
2022-10-12T02:41:15.846Z,6.93
2022-10-12T02:43:55.270Z,6.55
2022-10-12T02:46:26.417Z,12.82
2022-10-12T02:48:58.971Z,6.50
2022-10-12T02:51:30.045Z,4.20
2022-10-12T02:53:59.700Z,5.03
2022-10-12T02:56:27.979Z,6.65
2022-10-12T02:58:57.173Z,10.13
2022-10-12T03:01:24.998Z,9.65
2022-10-12T03:03:55.211Z,7.90
2022-10-12T03:06:23.948Z,8.23
2022-10-12T03:08:51.934Z,7.50
2022-10-12T03:11:20.397Z,8.65
2022-10-12T03:13:48.791Z,5.38
2022-10-12T03:16:17.167Z,4.50
2022-10-12T03:18:44.990Z,3.22
2022-10-12T03:21:13.043Z,2.75
2022-10-12T03:23:40.992Z,3.95
2022-10-12T03:26:09.348Z,2.85
2022-10-12T03:28:37.645Z,4.50
2022-10-12T03:31:05.657Z,4.03
2022-10-12T03:33:33.436Z,3.20
2022-10-12T03:36:01.687Z,3.55
2022-10-12T03:38:30.747Z,3.78
2022-10-12T03:41:02.896Z,3.78
2022-10-12T03:43:36.101Z,3.08
2022-10-12T03:46:04.247Z,2.97
2022-10-12T03:48:32.571Z,3.97
2022-10-12T03:51:01.223Z,2.88
2022-10-12T03:53:29.279Z,3.25
2022-10-12T03:55:57.217Z,4.53
2022-10-12T03:58:25.623Z,5.03
2022-10-12T04:00:55.862Z,5.28
2022-10-12T04:03:24.776Z,4.40
2022-10-12T04:05:57.658Z,4.32
2022-10-12T04:08:26.852Z,4.22
2022-10-12T04:10:55.090Z,4.47
2022-10-12T04:13:27.875Z,6.72
2022-10-12T04:18:24.985Z,3.42
2022-10-12T04:20:53.511Z,7.50
2022-10-12T04:23:21.855Z,5.47
2022-10-12T04:25:50.409Z,6.57
2022-10-12T04:28:19.920Z,4.55
2022-10-12T04:30:48.059Z,6.72
2022-10-12T04:33:15.890Z,8.30
2022-10-12T04:35:43.956Z,11.77
2022-10-12T04:38:13.507Z,8.93
2022-10-12T04:40:41.711Z,7.72
2022-10-12T04:43:09.565Z,5.47
2022-10-12T04:45:37.620Z,3.60
2022-10-12T04:48:05.406Z,3.28
2022-10-12T04:50:34.056Z,4.38
2022-10-12T04:53:02.188Z,4.60
2022-10-12T04:55:32.468Z,4.13
2022-10-12T04:58:01.140Z,4.43
2022-10-12T05:00:29.415Z,4.40
2022-10-12T05:02:59.597Z,3.40
2022-10-12T05:05:27.499Z,10.80
2022-10-12T05:07:55.441Z,6.68
2022-10-12T05:10:23.934Z,4.13
2022-10-12T05:12:51.643Z,3.22
2022-10-12T05:15:20.756Z,2.95
2022-10-12T05:17:49.003Z,3.10
2022-10-12T05:20:17.187Z,2.92
2022-10-12T05:22:45.090Z,3.38
2022-10-12T05:25:14.283Z,3.28
2022-10-12T05:27:42.932Z,2.95
2022-10-12T05:30:13.001Z,4.53
2022-10-12T05:32:41.110Z,4.72
2022-10-12T05:35:11.436Z,5.60
2022-10-12T05:37:39.595Z,4.22
2022-10-12T05:40:09.353Z,4.90
2022-10-12T05:42:37.359Z,6.85
2022-10-12T05:45:06.533Z,6.20
2022-10-12T05:47:34.690Z,4.80
2022-10-12T05:50:03.227Z,5.72
2022-10-12T05:52:30.956Z,5.93
2022-10-12T05:54:59.073Z,4.50
2022-10-12T05:57:28.046Z,4.70
2022-10-12T05:59:57.318Z,4.35
2022-10-12T06:02:25.959Z,4.07
2022-10-12T06:04:54.150Z,3.88
2022-10-12T06:07:22.629Z,3.08
2022-10-12T06:09:50.476Z,4.90
2022-10-12T06:12:18.371Z,4.38
2022-10-12T06:14:46.544Z,4.22
2022-10-12T06:17:14.381Z,3.97
2022-10-12T06:19:42.205Z,3.80
2022-10-12T06:22:10.040Z,4.90
2022-10-12T06:24:38.447Z,3.75
2022-10-12T06:27:06.488Z,4.07
2022-10-12T06:29:35.888Z,3.88
2022-10-12T06:32:04.612Z,4.20
2022-10-12T06:34:32.503Z,3.63
2022-10-12T06:37:02.043Z,4.57
2022-10-12T06:39:30.219Z,3.90
2022-10-12T06:41:58.084Z,3.97
2022-10-12T06:44:31.010Z,4.53
2022-10-12T06:47:02.776Z,4.97
2022-10-12T06:49:30.773Z,7.07
2022-10-12T06:51:59.531Z,4.80
2022-10-12T06:54:28.134Z,4.90
2022-10-12T06:56:58.743Z,4.32
2022-10-12T06:59:26.984Z,4.18
2022-10-12T07:01:57.275Z,5.03
2022-10-12T07:04:25.566Z,3.88
2022-10-12T07:06:53.354Z,4.05
2022-10-12T07:09:21.264Z,3.95
2022-10-12T07:11:49.268Z,4.45
2022-10-12T07:14:17.387Z,3.90
2022-10-12T07:16:46.076Z,4.07
2022-10-12T07:19:16.084Z,4.22
2022-10-12T07:21:45.232Z,4.03
2022-10-12T07:24:14.182Z,3.85
2022-10-12T07:26:42.085Z,3.85
2022-10-12T07:29:10.386Z,3.72
2022-10-12T07:31:38.252Z,4.22
2022-10-12T07:34:06.997Z,4.05
2022-10-12T07:36:59.445Z,4.90
2022-10-12T07:39:48.043Z,3.97
2022-10-12T07:42:19.237Z,4.38
2022-10-12T07:44:48.096Z,4.55
2022-10-12T07:47:17.720Z,4.07
2022-10-12T07:49:46.423Z,3.85
2022-10-12T07:52:14.875Z,3.90
2022-10-12T07:54:43.345Z,4.20
2022-10-12T07:57:11.677Z,3.72
2022-10-12T07:59:41.239Z,6.25
2022-10-12T08:02:12.712Z,5.72
2022-10-12T08:07:08.702Z,8.13
2022-10-12T08:09:36.573Z,5.95
2022-10-12T08:12:05.108Z,4.97
2022-10-12T08:14:33.263Z,5.05
2022-10-12T08:17:01.415Z,4.88
2022-10-12T08:19:35.089Z,4.68
2022-10-12T08:22:03.477Z,5.00
2022-10-12T08:24:34.393Z,5.18
2022-10-12T08:27:03.396Z,4.97
2022-10-12T08:29:32.726Z,6.82
2022-10-12T08:32:02.849Z,5.65
2022-10-12T08:34:31.089Z,5.32
2022-10-12T08:37:02.190Z,5.78
2022-10-12T08:39:30.675Z,5.38
2022-10-12T08:42:34.036Z,4.85
2022-10-12T08:45:39.076Z,5.15
2022-10-12T08:48:15.279Z,4.88
2022-10-12T08:50:53.828Z,4.80
2022-10-12T08:53:26.859Z,5.00
2022-10-12T08:55:56.951Z,6.85
2022-10-12T08:58:34.026Z,5.32
2022-10-12T09:01:16.626Z,4.93
2022-10-12T09:04:04.443Z,4.95
2022-10-12T09:06:55.626Z,5.05
2022-10-12T09:09:49.962Z,5.50
2022-10-12T09:12:41.862Z,4.80
2022-10-12T09:15:44.149Z,5.45
2022-10-12T09:18:40.835Z,6.10
2022-10-12T09:21:19.380Z,5.18
2022-10-12T09:23:49.381Z,5.85
2022-10-12T09:26:26.173Z,8.48
2022-10-12T09:28:58.229Z,6.85
2022-10-12T09:32:12.296Z,6.30
2022-10-12T09:34:41.394Z,5.70
2022-10-12T09:37:19.174Z,5.75
2022-10-12T09:39:48.068Z,5.55
2022-10-12T09:42:16.503Z,5.55
2022-10-12T09:44:52.743Z,5.20
2022-10-12T09:47:29.672Z,5.78
2022-10-12T09:50:04.728Z,5.38
2022-10-12T09:52:44.010Z,5.53
2022-10-12T09:58:02.724Z,6.30
2022-10-12T10:00:34.410Z,5.10
2022-10-12T10:03:02.938Z,5.53
2022-10-12T10:05:38.037Z,5.45
2022-10-12T10:08:15.144Z,5.40
2022-10-12T10:10:59.204Z,6.43
2022-10-12T10:13:31.720Z,5.68
2022-10-12T10:16:10.855Z,5.82
2022-10-12T10:18:49.010Z,5.82
2022-10-12T10:21:29.201Z,5.80
2022-10-12T10:24:07.338Z,5.70
2022-10-12T10:27:04.191Z,5.40
2022-10-12T10:29:42.349Z,6.30
2022-10-12T10:32:26.368Z,5.90
2022-10-12T10:35:13.865Z,5.82
2022-10-12T10:37:56.469Z,5.55
2022-10-12T10:40:32.519Z,5.90
2022-10-12T10:43:16.021Z,5.40
2022-10-12T10:45:56.911Z,6.25
2022-10-12T10:48:59.186Z,5.53
2022-10-12T10:51:51.031Z,5.72
2022-10-12T10:54:38.086Z,5.18
2022-10-12T10:57:23.776Z,5.38
2022-10-12T11:00:37.894Z,5.90
2022-10-12T11:02:58.614Z,6.30
2022-10-12T11:05:33.565Z,5.47
2022-10-12T11:08:27.143Z,5.40
2022-10-12T11:11:17.608Z,5.72
2022-10-12T11:14:19.641Z,5.85
2022-10-12T11:17:24.351Z,5.40
2022-10-12T11:20:10.517Z,5.22
2022-10-12T11:22:53.784Z,5.38
2022-10-12T11:25:54.497Z,6.13
2022-10-12T11:28:27.964Z,5.70
2022-10-12T11:30:56.748Z,5.55
2022-10-12T11:33:42.339Z,5.30
2022-10-12T11:36:24.647Z,5.30
2022-10-12T11:39:07.254Z,5.43
2022-10-12T11:42:09.662Z,5.68
2022-10-12T11:44:43.438Z,5.68
2022-10-12T11:47:47.668Z,5.57
2022-10-12T11:50:38.092Z,4.97
2022-10-12T11:53:33.804Z,5.57
2022-10-12T11:56:40.011Z,5.70
2022-10-12T11:59:43.256Z,5.70
2022-10-12T12:02:18.796Z,5.65
2022-10-12T12:04:49.736Z,5.80
2022-10-12T12:07:59.849Z,6.20
2022-10-12T12:10:37.429Z,5.90
2022-10-12T12:13:21.676Z,5.95
2022-10-12T12:15:52.181Z,5.70
2022-10-12T12:18:25.903Z,5.37
2022-10-12T12:21:05.364Z,5.43
2022-10-12T12:23:54.969Z,5.88
2022-10-12T12:26:28.935Z,5.40
2022-10-12T12:29:17.777Z,5.28
2022-10-12T12:32:02.369Z,5.50
2022-10-12T12:34:32.396Z,5.82
2022-10-12T12:37:12.759Z,5.70
2022-10-12T12:39:43.650Z,5.15
2022-10-12T12:42:20.697Z,6.03
2022-10-12T12:44:48.885Z,6.40
2022-10-12T12:47:51.476Z,5.50
2022-10-12T12:50:35.607Z,5.47
2022-10-12T12:53:18.624Z,5.22
2022-10-12T12:57:00.821Z,6.05
2022-10-12T13:00:07.056Z,5.22
2022-10-12T13:03:09.557Z,4.90
2022-10-12T13:06:23.561Z,5.40
2022-10-12T13:09:29.043Z,5.25
2022-10-12T13:12:06.195Z,6.15
2022-10-12T13:15:37.875Z,5.88
2022-10-12T13:18:47.566Z,5.70
2022-10-12T13:21:24.549Z,5.35
2022-10-12T13:24:26.541Z,5.65
2022-10-12T13:27:32.850Z,5.05
2022-10-12T13:30:11.874Z,4.80
2022-10-12T13:33:14.599Z,5.18
2022-10-12T13:36:35.364Z,5.25
2022-10-12T13:39:22.942Z,5.20
2022-10-12T13:41:56.376Z,5.40
2022-10-12T13:44:35.161Z,5.57
2022-10-12T13:47:31.306Z,6.03
2022-10-12T13:50:01.929Z,5.55
2022-10-12T13:52:34.827Z,5.72
2022-10-12T13:55:16.571Z,6.03
2022-10-12T13:57:48.632Z,5.60
2022-10-12T14:00:16.704Z,5.35
2022-10-12T14:02:56.854Z,5.20
2022-10-12T14:05:30.037Z,5.10
2022-10-12T14:08:07.696Z,5.80
2022-10-12T14:10:38.290Z,5.70
2022-10-12T14:13:07.182Z,5.55
2022-10-12T14:15:39.749Z,5.57
2022-10-12T14:18:36.078Z,4.93
2022-10-12T14:21:33.263Z,5.28
2022-10-12T14:24:10.437Z,4.85
2022-10-12T14:26:45.339Z,5.50
2022-10-12T14:29:49.100Z,5.30
2022-10-12T14:32:36.311Z,5.20
2022-10-12T14:35:18.351Z,5.68
2022-10-12T14:37:48.308Z,5.10
2022-10-12T14:40:32.709Z,5.38
2022-10-12T14:43:03.979Z,5.18
2022-10-12T14:45:33.332Z,4.95
2022-10-12T14:48:02.472Z,4.82
2022-10-12T14:50:32.711Z,5.05
2022-10-12T14:53:07.552Z,5.25
2022-10-12T14:55:35.639Z,5.05
2022-10-12T14:58:14.018Z,4.65
2022-10-12T15:00:43.512Z,4.55
2022-10-12T15:03:12.073Z,4.40
2022-10-12T15:05:40.103Z,4.55
2022-10-12T15:08:10.580Z,5.00
2022-10-12T15:10:38.532Z,4.40
2022-10-12T15:13:06.377Z,4.75
2022-10-12T15:15:45.829Z,4.15
2022-10-12T15:18:14.851Z,4.32
2022-10-12T15:20:48.408Z,4.20
2022-10-12T15:23:17.424Z,3.88
2022-10-12T15:25:54.893Z,4.82
2022-10-12T15:28:23.592Z,6.88
2022-10-12T15:31:15.887Z,4.82
2022-10-12T15:33:41.310Z,4.53
2022-10-12T15:36:10.799Z,4.40
2022-10-12T15:38:39.125Z,4.50
2022-10-12T15:41:17.625Z,5.20
2022-10-12T15:43:45.527Z,4.65
2022-10-12T15:46:13.671Z,5.03
2022-10-12T15:48:42.122Z,4.68
2022-10-12T15:51:19.174Z,4.03
2022-10-12T15:53:47.432Z,3.63
2022-10-12T15:56:17.971Z,5.55
2022-10-12T15:58:46.376Z,5.38
2022-10-12T16:01:21.147Z,4.70
2022-10-12T16:03:50.111Z,4.78
2022-10-12T16:06:18.820Z,4.40
2022-10-12T16:08:48.048Z,5.38
2022-10-12T16:11:18.479Z,4.70
2022-10-12T16:13:54.017Z,4.00
2022-10-12T16:16:24.568Z,4.22
2022-10-12T16:18:54.009Z,4.57
2022-10-12T16:21:22.173Z,4.20
2022-10-12T16:23:51.014Z,4.57
2022-10-12T16:26:20.314Z,3.90
2022-10-12T16:28:48.891Z,4.25
2022-10-12T16:31:18.708Z,4.10
2022-10-12T16:33:47.045Z,4.13
2022-10-12T16:36:17.973Z,3.88
2022-10-12T16:38:46.454Z,5.00
2022-10-12T16:41:18.842Z,4.07
2022-10-12T16:43:46.848Z,4.10
2022-10-12T16:46:15.953Z,4.10
2022-10-12T16:48:44.797Z,4.00
2022-10-12T16:51:14.071Z,4.13
2022-10-12T16:53:42.472Z,4.63
2022-10-12T16:56:11.057Z,4.45
2022-10-12T16:58:39.447Z,4.80
2022-10-12T17:01:14.062Z,4.80
2022-10-12T17:03:42.731Z,3.97
2022-10-12T17:06:12.915Z,6.18
2022-10-12T17:08:41.979Z,5.18
2022-10-12T17:11:13.828Z,8.20
2022-10-12T17:13:48.081Z,13.57
2022-10-12T17:16:37.316Z,10.70
2022-10-12T17:19:08.453Z,7.07
2022-10-12T17:21:45.576Z,5.75
2022-10-12T17:24:17.304Z,5.30
2022-10-12T17:26:46.364Z,5.82
2022-10-12T17:29:18.689Z,4.80
2022-10-12T17:31:48.940Z,5.50
2022-10-12T17:34:26.330Z,5.50
2022-10-12T17:36:58.782Z,5.60
2022-10-12T17:39:30.391Z,5.75
2022-10-12T17:42:00.402Z,5.22
2022-10-12T17:44:30.078Z,4.95
2022-10-12T17:47:00.797Z,4.60
2022-10-12T17:49:30.108Z,4.38
2022-10-12T17:52:00.213Z,4.68
2022-10-12T17:54:29.768Z,4.22
2022-10-12T17:56:59.206Z,4.25
2022-10-12T17:59:27.699Z,4.40
2022-10-12T18:01:55.791Z,4.60
2022-10-12T18:04:25.164Z,4.50
2022-10-12T18:06:57.583Z,4.55
2022-10-12T18:11:56.228Z,4.18
2022-10-12T18:14:24.670Z,4.40
2022-10-12T18:16:54.837Z,4.35
2022-10-12T18:19:23.642Z,4.55
2022-10-12T18:21:51.482Z,4.63
2022-10-12T18:24:23.825Z,4.50
2022-10-12T18:26:53.485Z,4.25
2022-10-12T18:29:22.837Z,4.50
2022-10-12T18:31:51.213Z,4.45
2022-10-12T18:34:19.520Z,4.57
2022-10-12T18:36:49.562Z,4.20
2022-10-12T18:39:22.292Z,4.78
2022-10-12T18:41:54.091Z,3.92
2022-10-12T18:44:22.060Z,4.25
2022-10-12T18:46:51.612Z,3.95
2022-10-12T18:49:20.276Z,3.75
2022-10-12T18:51:51.969Z,4.28
2022-10-12T18:56:49.089Z,3.92
2022-10-12T18:59:20.038Z,4.20
2022-10-12T19:01:49.919Z,4.10
2022-10-12T19:04:19.208Z,4.65
2022-10-12T19:06:49.008Z,7.85
2022-10-12T19:09:19.089Z,6.70
2022-10-12T19:11:48.151Z,6.18
2022-10-12T19:14:17.366Z,6.05
2022-10-12T19:16:46.469Z,6.57
2022-10-12T19:19:21.100Z,7.15
2022-10-12T19:21:54.072Z,6.20
2022-10-12T19:24:22.931Z,5.63
2022-10-12T19:26:56.507Z,5.10
2022-10-12T19:29:26.067Z,5.00
2022-10-12T19:31:54.693Z,3.58
2022-10-12T19:34:24.141Z,3.60
2022-10-12T19:36:53.066Z,4.20
2022-10-12T19:39:23.915Z,3.72
2022-10-12T19:41:53.043Z,4.30
2022-10-12T19:44:22.058Z,4.10
2022-10-12T19:46:53.839Z,4.13
2022-10-12T19:49:22.863Z,3.92
2022-10-12T19:51:51.025Z,4.28
2022-10-12T19:54:19.758Z,4.88
2022-10-12T19:56:48.156Z,5.13
2022-10-12T19:59:16.701Z,4.40
2022-10-12T20:01:48.239Z,4.82
2022-10-12T20:04:17.889Z,5.10
2022-10-12T20:06:46.281Z,5.35
2022-10-12T20:09:15.065Z,5.15
2022-10-12T20:11:45.510Z,6.05
2022-10-12T20:14:15.274Z,5.45
2022-10-12T20:16:48.543Z,5.18
2022-10-12T20:19:17.194Z,6.88
2022-10-12T20:21:45.531Z,6.07
2022-10-12T20:24:14.421Z,4.93
2022-10-12T20:26:44.028Z,4.57
2022-10-12T20:29:13.402Z,4.45
2022-10-12T20:31:44.540Z,4.65
2022-10-12T20:34:13.365Z,4.82
2022-10-12T20:36:41.535Z,5.18
2022-10-12T20:39:09.694Z,4.43
2022-10-12T20:41:41.489Z,5.05
2022-10-12T20:44:11.048Z,5.10
2022-10-12T20:46:39.100Z,4.85
2022-10-12T20:49:07.934Z,4.57
2022-10-12T20:51:41.736Z,4.38
2022-10-12T20:54:18.932Z,5.20
2022-10-12T20:56:49.581Z,8.02
2022-10-12T20:59:20.616Z,5.90
2022-10-12T21:01:48.883Z,7.53
2022-10-12T21:04:16.719Z,6.78
2022-10-12T21:06:44.643Z,6.85
2022-10-12T21:09:14.783Z,7.03
2022-10-12T21:11:43.736Z,8.50
2022-10-12T21:14:13.059Z,7.72
2022-10-12T21:16:41.242Z,7.68
2022-10-12T21:19:17.202Z,7.45
2022-10-12T21:21:46.569Z,6.68
2022-10-12T21:24:15.628Z,6.50
2022-10-12T21:26:44.465Z,6.68
2022-10-12T21:29:13.063Z,5.22
2022-10-12T21:31:41.360Z,5.50
2022-10-12T21:34:10.739Z,5.72
2022-10-12T21:36:39.487Z,7.00
2022-10-12T21:39:17.951Z,6.85
2022-10-12T21:41:46.254Z,5.90
2022-10-12T21:44:15.380Z,5.78
2022-10-12T21:46:44.344Z,5.28
2022-10-12T21:49:15.689Z,5.60
2022-10-12T21:51:44.848Z,5.28
2022-10-12T21:54:12.817Z,5.10
2022-10-12T21:56:42.618Z,4.90
2022-10-12T21:59:10.733Z,5.35
2022-10-12T22:04:23.365Z,5.82
2022-10-12T22:06:51.418Z,5.97
2022-10-12T22:09:22.252Z,6.53
2022-10-12T22:11:51.433Z,5.88
2022-10-12T22:14:21.949Z,6.20
2022-10-12T22:16:50.928Z,5.63
2022-10-12T22:19:20.915Z,5.78
2022-10-12T22:21:51.853Z,5.93
2022-10-12T22:26:49.613Z,5.53
2022-10-12T22:29:17.477Z,6.22
2022-10-12T22:31:47.089Z,5.50
2022-10-12T22:34:16.456Z,5.90
2022-10-12T22:36:47.832Z,6.57
2022-10-12T22:39:21.518Z,6.53
2022-10-12T22:41:49.399Z,6.28
2022-10-12T22:44:17.970Z,6.47
2022-10-12T22:46:45.970Z,6.32
2022-10-12T22:49:14.011Z,5.97
2022-10-12T22:51:42.588Z,6.93
2022-10-12T22:54:13.164Z,6.13
2022-10-12T22:56:42.796Z,5.93
2022-10-12T22:59:14.496Z,6.65
2022-10-12T23:01:42.780Z,6.88
2022-10-12T23:04:11.196Z,7.32
2022-10-12T23:06:39.248Z,6.65
2022-10-12T23:09:07.199Z,6.75
2022-10-12T23:11:35.145Z,6.72
2022-10-12T23:14:03.067Z,6.20
2022-10-12T23:16:33.985Z,6.20
2022-10-12T23:19:05.901Z,5.68
2022-10-12T23:21:35.438Z,5.95
2022-10-12T23:24:07.239Z,7.07
2022-10-12T23:26:35.701Z,6.45
2022-10-12T23:29:05.016Z,6.68
2022-10-12T23:31:33.526Z,5.57
2022-10-12T23:34:05.422Z,6.70
2022-10-12T23:36:34.803Z,6.13
2022-10-12T23:39:05.552Z,5.20
2022-10-12T23:41:33.882Z,5.03
2022-10-12T23:44:02.501Z,5.05
2022-10-12T23:46:30.611Z,5.13
2022-10-12T23:48:58.807Z,5.07
2022-10-12T23:51:27.352Z,5.53
2022-10-12T23:53:55.289Z,5.88
2022-10-12T23:56:23.951Z,6.90
2022-10-12T23:58:52.435Z,6.90
